• Join FlightAware (Why Join?)
  • Login
  • US Flag 
10:54AM EDT


 

Airport Tracker/Info


-or-


 

Live Flight TrackerFlight Track Log ✈ AAL936 ✈ 26-Jul-2014 ✈ MTPP / PAP - KMIA

Flight Track Log - Related Links

Times and Time Zones

All times are in EDT time to prevent confusion due to time zone crossing. See the AAL936 flight status page for this flight to view local times or setup timezone preferences in your user account.

Time Position Orientation Groundspeed Altitude Reporting Facility
EDT Latitude Longitude Course Direction KTS MPH feet Rate Location/Type
02:22PM 18.5741 -72.3386 267° West 195 224 2,000  Level FlightAware ADS-B (MTJA / JAK)
02:23PM 18.5733 -72.3558 267° West 229 264 2,400 1,680 Climbing FlightAware ADS-B (MTJA / JAK)
02:23PM 18.5724 -72.3731 268° West 249 287 2,900 2,520 Climbing FlightAware ADS-B (MTJA / JAK)
02:23PM 18.5715 -72.3901 267° West 264 304 3,600 3,300 Climbing FlightAware ADS-B (MTJA / JAK)
02:23PM 18.5710 -72.4110 271° West 270 311 4,500 3,540 Climbing FlightAware ADS-B (MTJA / JAK)
02:23PM 18.5714 -72.4188 276° West 270 311 4,900 4,200 Climbing FlightAware ADS-B (MTJA / JAK)
02:23PM 18.5721 -72.4239 282° West 270 311 5,200 3,780 Climbing FlightAware ADS-B (MTJA / JAK)
02:24PM 18.5746 -72.4325 295° West 270 311 5,600 3,840 Climbing FlightAware ADS-B (MTJA / JAK)
02:24PM 18.5791 -72.4400 308° West 269 310 6,100 3,960 Climbing FlightAware ADS-B (MTJA / JAK)
02:24PM 18.5832 -72.4449 317° Northwest 265 305 6,400 4,200 Climbing FlightAware ADS-B (MTJA / JAK)
02:24PM 18.5880 -72.4490 326° Northwest 266 306 6,800 4,200 Climbing FlightAware ADS-B (MTJA / JAK)
02:24PM 18.5945 -72.4528 336° Northwest 267 307 7,100 3,300 Climbing FlightAware ADS-B (MTJA / JAK)
02:24PM 18.5983 -72.4543 342° North 270 311 7,300 2,640 Climbing FlightAware ADS-B (MTJA / JAK)
02:24PM 18.6048 -72.4562 349° North 274 315 7,500 2,760 Climbing FlightAware ADS-B (MTJA / JAK)
02:24PM 18.6155 -72.4572 North 283 326 7,900 2,700 Climbing FlightAware ADS-B (MTJA / JAK)
02:24PM 18.6311 -72.4555 10° North 293 337 8,400 3,000 Climbing FlightAware ADS-B (MTJA / JAK)
02:25PM 18.6498 -72.4522 North 297 342 9,200 3,180 Climbing FlightAware ADS-B (MTJA / JAK)
02:25PM 18.6953 -72.4437 11° North 323 372 10,900 2,340 Climbing FlightAware ADS-B (MTJA / JAK)
02:26PM 18.7446 -72.4330 12° North 376 433 11,700 1,800 Climbing FlightAware ADS-B (MTJA / JAK)
02:26PM 18.7796 -72.4296 356° North 401 461 12,400 2,880 Climbing FlightAware ADS-B (MTJA / JAK)
02:26PM 18.7990 -72.4332 345° North 402 463 13,100 4,260 Climbing FlightAware ADS-B (MTJA / JAK)
02:26PM 18.8182 -72.4409 335° Northwest 405 466 13,900 4,200 Climbing FlightAware ADS-B (MTJA / JAK)
02:27PM 18.8654 -72.4735 324° Northwest 405 466 16,000 3,900 Climbing FlightAware ADS-B (MTJA / JAK)
02:27PM 18.9128 -72.5072 329° Northwest 414 476 17,800 3,120 Climbing FlightAware ADS-B (MTJA / JAK)
02:28PM 18.9616 -72.5369 331° Northwest 425 489 19,100 2,760 Climbing FlightAware ADS-B (MTJA / JAK)
02:28PM 19.0166 -72.5676 334° Northwest 436 502 20,600 2,760 Climbing FlightAware ADS-B (MTJA / JAK)
02:29PM 19.0889 -72.6059 334° Northwest 447 514 22,400 2,520 Climbing FlightAware ADS-B (MTJA / JAK)
02:29PM 19.1428 -72.6341 333° Northwest 459 528 23,500 2,400 Climbing FlightAware ADS-B (MTJA / JAK)
02:30PM 19.2027 -72.6701 329° Northwest 469 540 24,800 2,520 Climbing FlightAware ADS-B (MTJA / JAK)
02:31PM 19.2747 -72.7166 329° Northwest 473 544 26,500 2,520 Climbing FlightAware ADS-B (MTJA / JAK)
02:31PM 19.3346 -72.7542 330° Northwest 477 549 27,800 1,200 Climbing FlightAware ADS-B (MTJA / JAK)
02:32PM 19.4135 -72.8026 331° Northwest 464 534 28,000 120 Climbing FlightAware ADS-B (MTJA / JAK)
02:32PM 19.4709 -72.8371 331° Northwest 481 554 28,000  Level FlightAware ADS-B (MTJA / JAK)
02:33PM 19.5359 -72.8762 331° Northwest 489 563 28,000  Level FlightAware ADS-B (MTJA / JAK)
02:33PM 19.5898 -72.9084 331° Northwest 491 565 28,000  Level FlightAware ADS-B (MTJA / JAK)
02:34PM 19.6518 -72.9454 331° Northwest 492 566 28,000  Level FlightAware ADS-B (MTJA / JAK)
02:34PM 19.7138 -72.9825 331° Northwest 491 565 28,000  Level FlightAware ADS-B (MTJA / JAK)
02:35PM 19.7708 -73.0167 331° Northwest 489 563 28,000  Level FlightAware ADS-B (MTJA / JAK)
02:36PM 19.8636 -73.0685 333° Northwest 488 562 28,000  Level FlightAware ADS-B (MTJA / JAK)
02:36PM 19.9192 -73.0989 333° Northwest 487 560 28,000  Level FlightAware ADS-B (MTJA / JAK)
02:37PM 20.0442 -73.1683 333° Northwest 489 563 28,000  Level FlightAware ADS-B (MTJA / JAK)
02:38PM 20.1047 -73.2022 331° Northwest 490 564 28,000  Level FlightAware ADS-B (MTJA / JAK)
02:38PM 20.1561 -73.2388 323° Northwest 492 566 28,000  Level FlightAware ADS-B (MTJA / JAK)
02:39PM 20.2281 -73.3023 320° Northwest 493 567 28,000  Level FlightAware ADS-B (MTJA / JAK)
02:39PM 20.2830 -73.3530 319° Northwest 493 567 28,000  Level FlightAware ADS-B (MTJA / JAK)
02:40PM 20.3328 -73.3990 319° Northwest 493 567 28,000  Level FlightAware ADS-B (MTJA / JAK)
02:40PM 20.3838 -73.4462 319° Northwest 493 567 28,000  Level FlightAware ADS-B (MTJA / JAK)
02:41PM 20.4622 -73.5181 320° Northwest 492 566 28,000 60 Level FlightAware ADS-B (MTJA / JAK)
02:42PM 20.5443 -73.5936 319° Northwest 494 568 28,100 1,440 Climbing FlightAware ADS-B (MTJA / JAK)
02:43PM 20.6330 -73.6753 320° Northwest 488 562 30,400 2,580 Climbing FlightAware ADS-B (MTJA / JAK)
02:44PM 20.7110 -73.7474 320° Northwest 480 552 32,400 2,220 Climbing FlightAware ADS-B (MTJA / JAK)
02:45PM 20.8464 -73.8664 320° Northwest 480 552 35,100 1,860 Climbing Miami Center
02:46PM 20.9478 -73.9606 319° Northwest 480 552 36,900 1,380 Climbing Miami Center
02:47PM 21.0442 -74.0511 319° Northwest 480 552 38,000 480 Climbing Miami Center
02:48PM 21.1444 -74.1453 319° Northwest 480 552 38,000  Level Miami Center
02:49PM 21.2444 -74.2392 319° Northwest 479 551 38,000  Level Miami Center
02:50PM 21.3639 -74.3494 319° Northwest 474 545 38,000  Level Miami Center
02:51PM 21.4611 -74.4425 318° Northwest 471 542 38,000  Level Miami Center
02:52PM 21.5586 -74.5336 319° Northwest 468 539 38,000  Level Miami Center
02:53PM 21.6567 -74.6258 319° Northwest 467 537 38,000  Level Miami Center
02:54PM 21.7547 -74.7175 319° Northwest 467 537 38,000  Level Miami Center
02:55PM 21.8525 -74.8117 318° Northwest 467 537 38,000  Level Miami Center
02:56PM 21.9703 -74.9236 319° Northwest 467 537 38,000  Level Miami Center
02:57PM 22.0697 -75.0169 319° Northwest 469 540 38,000  Level Miami Center
02:58PM 22.1608 -75.1197 314° West 471 542 38,000  Level Miami Center
02:59PM 22.2386 -75.2308 307° West 466 536 38,000  Level Miami Center
03:00PM 22.3203 -75.3436 308° West 470 541 38,000  Level Miami Center
03:01PM 22.4019 -75.4578 308° West 476 548 38,000  Level Miami Center
03:02PM 22.5019 -75.5931 309° West 476 548 38,000  Level Miami Center
03:03PM 22.5844 -75.7067 308° West 477 549 38,000  Level Miami Center
03:05PM 22.6675 -75.8208 308° West 477 549 38,000  Level Miami Center
03:06PM 22.7494 -75.9350 308° West 477 549 38,000  Level Miami Center
03:07PM 22.8328 -76.0469 309° West 477 549 38,000  Level Miami Center
03:08PM 22.9142 -76.1622 307° West 477 549 38,000  Level Miami Center
03:09PM 22.9972 -76.2747 309° West 476 548 38,000  Level Miami Center
03:10PM 23.0961 -76.4111 308° West 474 545 38,000  Level Miami Center
03:11PM 23.1767 -76.5261 307° West 474 545 38,000  Level Miami Center
03:12PM 23.2597 -76.6389 309° West 475 547 38,000  Level Miami Center
03:13PM 23.3406 -76.7536 308° West 474 545 38,000  Level Miami Center
03:14PM 23.4219 -76.8681 308° West 474 545 38,000  Level Miami Center
03:15PM 23.5036 -76.9825 308° West 475 547 38,000  Level Miami Center
03:16PM 23.5844 -77.0972 308° West 475 547 38,000  Level Miami Center
03:17PM 23.6775 -77.2283 308° West 476 548 38,000  Level Miami Center
03:18PM 23.7572 -77.3431 307° West 475 547 38,000  Level Miami Center
03:19PM 23.8425 -77.4656 307° West 462 532 38,000  Level Miami Center
03:20PM 23.9194 -77.5753 308° West 456 525 38,000 -60 Level Miami Center
03:25PM 24.2758 -78.0915 307° West 456 525 37,700 -240 Descending FlightAware ADS-B (KEYW)
03:26PM 24.3574 -78.2099 308° West 463 533 36,700 -1,020 Descending FlightAware ADS-B (KEYW)
03:28PM 24.5119 -78.4346 307° West 463 533 34,800 -1,320 Descending FlightAware ADS-B (KEYW)
03:29PM 24.6029 -78.5677 307° West 477 549 32,600 -1,920 Descending FlightAware ADS-B (KEYW)
03:30PM 24.6688 -78.6644 307° West 465 535 31,000 -2,400 Descending FlightAware ADS-B (KEYW)
03:30PM 24.7136 -78.7301 307° West 462 532 29,400 -2,580 Descending FlightAware ADS-B (KEYW)
03:31PM 24.7372 -78.7651 307° West 472 543 28,200 -2,700 Descending FlightAware ADS-B (KEYW)
03:31PM 24.7918 -78.8454 307° West 457 526 26,700 -2,580 Descending FlightAware ADS-B (KEYW)
03:33PM 24.9039 -79.0113 307° West 440 506 23,100 -2,220 Descending FlightAware ADS-B (KEYW)
03:33PM 24.9182 -79.0320 307° West 439 505 22,600 -2,160 Descending FlightAware ADS-B (KEYW)
03:36PM 25.1149 -79.3251 307° West 400 460 16,700 -2,160 Descending FlightAware ADS-B (KEYW)
03:36PM 25.1464 -79.3718 307° West 390 449 15,900 -1,860 Descending FlightAware ADS-B (KEYW)
03:37PM 25.1881 -79.4341 307° West 368 423 14,400 -1,860 Descending FlightAware ADS-B (KEYW)
03:38PM 25.2239 -79.4878 307° West 331 381 13,600 -1,380 Descending FlightAware ADS-B (KEYW)
03:38PM 25.2614 -79.5444 307° West 286 329 12,700 -1,380 Descending FlightAware ADS-B (KEYW)
03:39PM 25.2950 -79.5949 307° West 259 298 11,600 -1,680 Descending FlightAware ADS-B (KEYW)
03:40PM 25.3264 -79.6426 307° West 250 288 10,200 -1,860 Descending FlightAware ADS-B (KEYW)
03:41PM 25.3532 -79.6831 306° West 247 284 8,900 -1,860 Descending FlightAware ADS-B (KEYW)
03:41PM 25.3652 -79.7015 307° West 239 275 8,400 -1,320 Descending FlightAware ADS-B (KEYW)
03:42PM 25.4072 -79.7494 307° West 237 273 7,300 -1,080 Descending Miami Center
03:42PM 25.4389 -79.7622 340° North 235 270 6,800 -1,080 Descending Miami Center
03:43PM 25.4686 -79.7631 359° North 237 273 6,200 -1,200 Descending Miami Center
03:43PM 25.5117 -79.7675 355° North 229 264 5,500 -1,080 Descending Miami Center
03:44PM 25.5317 -79.7703 353° North 230 265 5,100 -1,140 Descending Miami Center
03:44PM 25.5658 -79.7739 355° North 226 260 4,500 -1,080 Descending Miami Center
03:45PM 25.5939 -79.7756 357° North 229 264 4,000 -540 Descending Miami Center
03:45PM 25.6303 -79.7808 353° North 221 254 4,000  Level Miami Center
03:46PM 25.6550 -79.7839 354° North 226 260 4,000  Level Miami Center
03:46PM 25.6928 -79.7878 355° North 224 258 4,000  Level Miami Center
03:47PM 25.7297 -79.7922 354° North 225 259 4,000  Level Miami Center
03:47PM 25.7481 -79.8103 318° Northwest 219 252 4,000 -600 Level Miami Center
03:48PM 25.7725 -79.8375 315° West 216 249 3,400 -1,020 Descending Miami Center
03:48PM 25.7911 -79.8597 313° West 217 250 3,000 -420 Descending Miami Center
03:49PM 25.8047 -79.8933 294° West 215 247 3,000  Level Miami Center
03:49PM 25.8125 -79.9192 288° West 200 230 3,000  Level Miami Center
03:50PM 25.8158 -79.9525 276° West 202 232 3,000  Level Miami Center
03:50PM 25.8128 -79.9839 264° West 202 232 3,000  Level Miami Center
03:51PM 25.8128 -80.0144 270° West 202 232 3,000  Level Miami Center
03:51PM 25.8111 -80.0439 266° West 199 229 3,000  Level Miami Center
03:52PM 25.8094 -80.0839 267° West 188 216 3,000  Level Miami Center
03:52PM 25.8078 -80.0992 263° West 169 194 3,000 -720 Level Miami Center
03:53PM 25.8081 -80.1361 270° West 177 204 2,300 -900 Descending Miami Center
03:53PM 25.8067 -80.1522 265° West 170 196 2,100 -780 Descending Miami Center
03:54PM 25.8053 -80.1861 267° West 167 192 1,500 -840 Descending Miami Center
03:54PM 25.8036 -80.2006 263° West 154 177 1,300 -720 Descending Miami Center
03:55PM 25.8036 -80.2308 270° West 148 170 800 -840 Descending Miami Center
03:55PM 25.8028 -80.2469 267° West 141 162 500 -720 Descending Miami Center
03:56PM 25.8019 -80.2781 268° West 144 166 100 -540 Descending Miami Center